sensor_id;sensor_type;location;lat;lon;timestamp;pressure;altitude;pressure_sealevel;temperature;humidity
5879;BME280;2965;42.640;23.370;2023-03-08T05:00:43;93776.72;;;3.92;100.00
5879;BME280;2965;42.640;23.370;2023-03-08T05:03:09;93778.03;;;3.88;100.00
5879;BME280;2965;42.640;23.370;2023-03-08T05:05:34;93780.47;;;4.06;100.00
5879;BME280;2965;42.640;23.370;2023-03-08T05:08:00;93790.81;;;4.22;100.00
5879;BME280;2965;42.640;23.370;2023-03-08T05:10:30;93797.31;;;4.35;100.00
5879;BME280;2965;42.640;23.370;2023-03-08T05:12:56;93801.81;;;4.41;100.00
5879;BME280;2965;42.640;23.370;2023-03-08T05:15:21;93812.00;;;4.42;100.00
5879;BME280;2965;42.640;23.370;2023-03-08T05:17:48;93811.84;;;4.19;100.00
5879;BME280;2965;42.640;23.370;2023-03-08T05:20:14;93814.75;;;4.33;100.00
5879;BME280;2965;42.640;23.370;2023-03-08T05:22:39;93814.78;;;4.41;100.00
5879;BME280;2965;42.640;23.370;2023-03-08T05:25:05;93817.03;;;4.52;100.00
5879;BME280;2965;42.640;23.370;2023-03-08T05:27:32;93819.28;;;4.63;100.00
5879;BME280;2965;42.640;23.370;2023-03-08T05:29:58;93823.16;;;4.75;100.00
5879;BME280;2965;42.640;23.370;2023-03-08T05:32:23;93838.22;;;4.72;100.00
5879;BME280;2965;42.640;23.370;2023-03-08T05:34:48;93838.69;;;4.75;100.00
5879;BME280;2965;42.640;23.370;2023-03-08T05:37:14;93829.31;;;4.66;100.00
5879;BME280;2965;42.640;23.370;2023-03-08T05:39:40;93839.00;;;4.89;100.00
5879;BME280;2965;42.640;23.370;2023-03-08T05:42:05;93851.28;;;4.95;100.00
5879;BME280;2965;42.640;23.370;2023-03-08T05:44:31;93843.53;;;4.95;100.00
5879;BME280;2965;42.640;23.370;2023-03-08T05:46:56;93851.06;;;5.21;100.00
5879;BME280;2965;42.640;23.370;2023-03-08T05:49:21;93859.97;;;5.26;100.00
5879;BME280;2965;42.640;23.370;2023-03-08T05:51:47;93865.81;;;5.28;100.00
5879;BME280;2965;42.640;23.370;2023-03-08T05:54:12;93853.16;;;5.25;100.00
5879;BME280;2965;42.640;23.370;2023-03-08T05:56:37;93851.25;;;5.27;100.00
5879;BME280;2965;42.640;23.370;2023-03-08T05:59:03;93862.03;;;5.39;100.00
5879;BME280;2965;42.640;23.370;2023-03-08T06:01:28;93863.03;;;5.30;100.00
5879;BME280;2965;42.640;23.370;2023-03-08T06:03:56;93870.59;;;5.48;100.00
5879;BME280;2965;42.640;23.370;2023-03-08T06:06:23;93870.56;;;5.56;100.00
5879;BME280;2965;42.640;23.370;2023-03-08T06:08:49;93873.44;;;5.69;100.00
5879;BME280;2965;42.640;23.370;2023-03-08T06:11:15;93878.78;;;5.76;100.00
5879;BME280;2965;42.640;23.370;2023-03-08T06:13:40;93874.50;;;5.83;100.00
5879;BME280;2965;42.640;23.370;2023-03-08T06:16:06;93877.91;;;5.92;100.00
5879;BME280;2965;42.640;23.370;2023-03-08T06:18:34;93886.00;;;5.97;100.00
5879;BME280;2965;42.640;23.370;2023-03-08T06:21:02;93879.56;;;5.85;100.00
5879;BME280;2965;42.640;23.370;2023-03-08T06:23:30;93886.88;;;5.81;100.00
5879;BME280;2965;42.640;23.370;2023-03-08T06:25:56;93905.16;;;5.96;100.00
5879;BME280;2965;42.640;23.370;2023-03-08T06:28:23;93900.63;;;5.90;100.00
5879;BME280;2965;42.640;23.370;2023-03-08T06:30:49;93901.94;;;5.86;100.00
5879;BME280;2965;42.640;23.370;2023-03-08T06:33:19;93899.06;;;5.72;100.00
5879;BME280;2965;42.640;23.370;2023-03-08T06:38:31;93909.31;;;6.05;100.00
5879;BME280;2965;42.640;23.370;2023-03-08T06:40:56;93901.88;;;6.02;100.00
5879;BME280;2965;42.640;23.370;2023-03-08T06:43:22;93897.81;;;6.07;100.00
5879;BME280;2965;42.640;23.370;2023-03-08T06:45:48;93900.81;;;6.19;100.00
5879;BME280;2965;42.640;23.370;2023-03-08T06:48:13;93907.88;;;6.34;100.00
5879;BME280;2965;42.640;23.370;2023-03-08T06:50:39;93917.25;;;6.43;100.00
5879;BME280;2965;42.640;23.370;2023-03-08T06:53:05;93901.66;;;6.43;100.00
5879;BME280;2965;42.640;23.370;2023-03-08T06:55:30;93912.28;;;6.56;100.00
5879;BME280;2965;42.640;23.370;2023-03-08T06:57:55;93918.16;;;6.50;100.00
5879;BME280;2965;42.640;23.370;2023-03-08T07:00:21;93922.91;;;6.69;100.00
5879;BME280;2965;42.640;23.370;2023-03-08T07:02:47;93927.69;;;6.80;100.00
5879;BME280;2965;42.640;23.370;2023-03-08T07:05:14;93937.47;;;6.78;100.00
5879;BME280;2965;42.640;23.370;2023-03-08T07:07:41;93943.94;;;6.82;100.00
5879;BME280;2965;42.640;23.370;2023-03-08T07:10:07;93944.25;;;7.02;100.00
5879;BME280;2965;42.640;23.370;2023-03-08T07:12:35;93949.50;;;7.17;100.00
5879;BME280;2965;42.640;23.370;2023-03-08T07:15:05;93955.13;;;7.06;100.00
5879;BME280;2965;42.640;23.370;2023-03-08T07:17:31;93956.94;;;7.20;100.00
5879;BME280;2965;42.640;23.370;2023-03-08T07:19:59;93954.91;;;7.30;100.00
5879;BME280;2965;42.640;23.370;2023-03-08T07:22:24;93953.56;;;7.34;100.00
5879;BME280;2965;42.640;23.370;2023-03-08T07:24:49;93956.81;;;7.37;100.00
5879;BME280;2965;42.640;23.370;2023-03-08T07:27:15;93954.13;;;7.45;100.00
5879;BME280;2965;42.640;23.370;2023-03-08T07:29:40;93954.22;;;7.51;100.00
5879;BME280;2965;42.640;23.370;2023-03-08T07:32:06;93960.59;;;7.78;100.00
5879;BME280;2965;42.640;23.370;2023-03-08T07:34:31;93958.00;;;7.93;100.00
5879;BME280;2965;42.640;23.370;2023-03-08T07:36:57;93947.03;;;8.13;100.00
5879;BME280;2965;42.640;23.370;2023-03-08T07:39:22;93950.19;;;8.08;100.00
5879;BME280;2965;42.640;23.370;2023-03-08T07:41:47;93943.72;;;8.04;100.00
5879;BME280;2965;42.640;23.370;2023-03-08T07:44:14;93944.22;;;8.29;100.00
5879;BME280;2965;42.640;23.370;2023-03-08T07:46:39;93956.81;;;8.25;100.00
5879;BME280;2965;42.640;23.370;2023-03-08T07:49:04;93949.22;;;8.45;100.00
5879;BME280;2965;42.640;23.370;2023-03-08T07:51:35;93941.69;;;8.50;100.00
5879;BME280;2965;42.640;23.370;2023-03-08T07:54:00;93948.53;;;8.37;100.00
5879;BME280;2965;42.640;23.370;2023-03-08T07:56:26;93946.72;;;8.52;100.00
5879;BME280;2965;42.640;23.370;2023-03-08T07:58:51;93943.38;;;8.79;100.00
5879;BME280;2965;42.640;23.370;2023-03-08T08:01:16;93946.75;;;8.95;100.00
5879;BME280;2965;42.640;23.370;2023-03-08T08:03:42;93958.78;;;8.96;100.00
5879;BME280;2965;42.640;23.370;2023-03-08T08:06:08;93962.88;;;9.05;100.00
5879;BME280;2965;42.640;23.370;2023-03-08T08:08:34;93958.66;;;9.25;100.00
5879;BME280;2965;42.640;23.370;2023-03-08T08:11:00;93961.00;;;9.20;100.00
5879;BME280;2965;42.640;23.370;2023-03-08T08:13:25;93954.19;;;9.19;100.00
5879;BME280;2965;42.640;23.370;2023-03-08T08:15:58;93956.28;;;9.30;100.00
5879;BME280;2965;42.640;23.370;2023-03-08T08:18:24;93959.03;;;9.22;100.00
5879;BME280;2965;42.640;23.370;2023-03-08T08:20:49;93955.66;;;9.28;100.00
5879;BME280;2965;42.640;23.370;2023-03-08T08:23:15;93959.75;;;9.38;100.00
5879;BME280;2965;42.640;23.370;2023-03-08T08:25:40;93959.03;;;9.22;100.00
5879;BME280;2965;42.640;23.370;2023-03-08T08:28:05;93963.59;;;9.42;100.00
5879;BME280;2965;42.640;23.370;2023-03-08T08:30:31;93964.22;;;9.72;100.00
5879;BME280;2965;42.640;23.370;2023-03-08T08:32:56;93956.44;;;9.78;100.00
5879;BME280;2965;42.640;23.370;2023-03-08T08:35:22;93962.16;;;9.67;100.00
5879;BME280;2965;42.640;23.370;2023-03-08T08:37:47;93961.53;;;9.93;100.00
5879;BME280;2965;42.640;23.370;2023-03-08T08:40:13;93965.88;;;10.14;100.00
5879;BME280;2965;42.640;23.370;2023-03-08T08:42:38;93957.75;;;10.37;99.32
5879;BME280;2965;42.640;23.370;2023-03-08T08:45:04;93955.03;;;10.58;100.00
5879;BME280;2965;42.640;23.370;2023-03-08T08:47:29;93953.03;;;10.74;99.62
5879;BME280;2965;42.640;23.370;2023-03-08T08:49:55;93958.50;;;10.85;95.93
5879;BME280;2965;42.640;23.370;2023-03-08T08:52:20;93957.75;;;10.98;98.57
5879;BME280;2965;42.640;23.370;2023-03-08T08:54:46;93957.16;;;11.16;92.27
5879;BME280;2965;42.640;23.370;2023-03-08T08:57:11;93959.56;;;11.24;88.23
5879;BME280;2965;42.640;23.370;2023-03-08T08:59:36;93958.53;;;11.05;87.31
5879;BME280;2965;42.640;23.370;2023-03-08T09:02:02;93959.13;;;11.01;87.23
5879;BME280;2965;42.640;23.370;2023-03-08T09:04:28;93964.78;;;11.24;89.39
5879;BME280;2965;42.640;23.370;2023-03-08T09:06:53;93964.78;;;11.24;87.11
5879;BME280;2965;42.640;23.370;2023-03-08T09:09:19;93953.13;;;11.33;88.55
5879;BME280;2965;42.640;23.370;2023-03-08T09:11:44;93963.19;;;11.17;89.30
5879;BME280;2965;42.640;23.370;2023-03-08T09:14:12;93956.94;;;11.37;92.50
5879;BME280;2965;42.640;23.370;2023-03-08T09:16:37;93953.94;;;11.54;88.05
5879;BME280;2965;42.640;23.370;2023-03-08T09:19:03;93952.31;;;11.66;85.72
5879;BME280;2965;42.640;23.370;2023-03-08T09:21:30;93951.50;;;11.85;87.78
5879;BME280;2965;42.640;23.370;2023-03-08T09:23:59;93951.50;;;11.92;85.49
5879;BME280;2965;42.640;23.370;2023-03-08T09:26:25;93944.44;;;11.86;85.68
5879;BME280;2965;42.640;23.370;2023-03-08T09:28:50;93945.88;;;11.55;86.58
5879;BME280;2965;42.640;23.370;2023-03-08T09:31:16;93949.91;;;11.45;84.46
5879;BME280;2965;42.640;23.370;2023-03-08T09:33:47;93941.84;;;11.66;85.34
5879;BME280;2965;42.640;23.370;2023-03-08T09:36:13;93922.88;;;11.84;81.64
5879;BME280;2965;42.640;23.370;2023-03-08T09:38:39;93929.31;;;11.95;79.81
5879;BME280;2965;42.640;23.370;2023-03-08T09:46:44;93933.63;;;12.41;79.45
5879;BME280;2965;42.640;23.370;2023-03-08T09:49:15;93926.09;;;12.89;79.09
5879;BME280;2965;42.640;23.370;2023-03-08T09:51:47;93927.53;;;13.17;74.37
5879;BME280;2965;42.640;23.370;2023-03-08T09:54:18;93922.66;;;13.20;72.56
5879;BME280;2965;42.640;23.370;2023-03-08T09:56:49;93925.16;;;13.65;72.66
5879;BME280;2965;42.640;23.370;2023-03-08T09:59:24;93914.50;;;13.78;72.12
5879;BME280;2965;42.640;23.370;2023-03-08T10:05:13;93919.50;;;14.05;70.08
5879;BME280;2965;42.640;23.370;2023-03-08T10:15:54;93906.88;;;14.80;67.44
5879;BME280;2965;42.640;23.370;2023-03-08T10:18:33;93896.28;;;14.57;66.37
5879;BME280;2965;42.640;23.370;2023-03-08T10:21:00;93904.56;;;14.72;67.75
5879;BME280;2965;42.640;23.370;2023-03-08T10:23:30;93903.44;;;15.10;65.64
5879;BME280;2965;42.640;23.370;2023-03-08T10:26:00;93895.88;;;15.25;65.76
5879;BME280;2965;42.640;23.370;2023-03-08T10:28:26;93896.94;;;15.48;64.76
5879;BME280;2965;42.640;23.370;2023-03-08T10:30:55;93890.69;;;15.84;64.96
5879;BME280;2965;42.640;23.370;2023-03-08T10:33:30;93890.00;;;15.65;60.20
5879;BME280;2965;42.640;23.370;2023-03-08T10:36:08;93890.69;;;15.96;63.25
5879;BME280;2965;42.640;23.370;2023-03-08T10:38:41;93891.69;;;16.18;62.19
5879;BME280;2965;42.640;23.370;2023-03-08T10:41:16;93885.16;;;16.09;61.72
5879;BME280;2965;42.640;23.370;2023-03-08T10:43:49;93884.34;;;15.50;61.75
5879;BME280;2965;42.640;23.370;2023-03-08T10:46:20;93888.16;;;15.66;62.57
5879;BME280;2965;42.640;23.370;2023-03-08T10:48:46;93888.34;;;16.23;60.92
5879;BME280;2965;42.640;23.370;2023-03-08T10:51:24;93877.22;;;16.89;58.89
5879;BME280;2965;42.640;23.370;2023-03-08T10:54:01;93872.94;;;17.17;59.33
5879;BME280;2965;42.640;23.370;2023-03-08T10:58:57;93865.06;;;16.88;57.33
5879;BME280;2965;42.640;23.370;2023-03-08T11:04:20;93865.16;;;16.65;59.75
5879;BME280;2965;42.640;23.370;2023-03-08T11:06:46;93864.06;;;17.06;57.61
5879;BME280;2965;42.640;23.370;2023-03-08T11:11:46;93852.16;;;16.63;57.91
5879;BME280;2965;42.640;23.370;2023-03-08T11:14:11;93846.44;;;16.38;57.74
5879;BME280;2965;42.640;23.370;2023-03-08T11:19:28;93838.28;;;15.87;60.64
5879;BME280;2965;42.640;23.370;2023-03-08T11:22:03;93836.00;;;15.79;60.58
5879;BME280;2965;42.640;23.370;2023-03-08T11:43:29;93795.09;;;17.42;52.73
5879;BME280;2965;42.640;23.370;2023-03-08T11:46:20;93791.09;;;17.95;52.81
5879;BME280;2965;42.640;23.370;2023-03-08T11:49:07;93792.84;;;17.50;51.98
5879;BME280;2965;42.640;23.370;2023-03-08T11:52:29;93794.75;;;17.55;51.19
5879;BME280;2965;42.640;23.370;2023-03-08T11:57:35;93783.50;;;17.81;51.33
5879;BME280;2965;42.640;23.370;2023-03-08T12:00:11;93786.69;;;17.83;48.96
5879;BME280;2965;42.640;23.370;2023-03-08T12:02:43;93782.09;;;17.96;48.04
5879;BME280;2965;42.640;23.370;2023-03-08T12:05:33;93772.66;;;18.05;49.59
5879;BME280;2965;42.640;23.370;2023-03-08T12:13:31;93764.66;;;19.03;45.83
5879;BME280;2965;42.640;23.370;2023-03-08T12:16:07;93762.31;;;19.44;48.95
5879;BME280;2965;42.640;23.370;2023-03-08T12:27:26;93765.84;;;18.85;43.67
5879;BME280;2965;42.640;23.370;2023-03-08T12:32:38;93751.00;;;19.21;44.12
5879;BME280;2965;42.640;23.370;2023-03-08T12:35:30;93755.16;;;18.48;44.34
5879;BME280;2965;42.640;23.370;2023-03-08T12:38:02;93757.88;;;17.65;47.07
5879;BME280;2965;42.640;23.370;2023-03-08T12:40:35;93750.91;;;17.98;45.80
5879;BME280;2965;42.640;23.370;2023-03-08T12:43:10;93745.34;;;18.21;47.84
5879;BME280;2965;42.640;23.370;2023-03-08T12:45:37;93753.56;;;18.47;44.10
5879;BME280;2965;42.640;23.370;2023-03-08T12:50:30;93744.06;;;18.51;45.34
5879;BME280;2965;42.640;23.370;2023-03-08T12:52:58;93744.13;;;18.88;44.52
5879;BME280;2965;42.640;23.370;2023-03-08T12:55:28;93750.94;;;18.52;43.99
5879;BME280;2965;42.640;23.370;2023-03-08T12:58:00;93748.19;;;18.41;45.45
5879;BME280;2965;42.640;23.370;2023-03-08T13:00:33;93743.69;;;18.15;43.60
5879;BME280;2965;42.640;23.370;2023-03-08T13:03:00;93734.75;;;18.21;43.74
5879;BME280;2965;42.640;23.370;2023-03-08T13:07:59;93737.97;;;18.77;42.35
5879;BME280;2965;42.640;23.370;2023-03-08T13:13:38;93740.66;;;19.20;41.84
5879;BME280;2965;42.640;23.370;2023-03-08T13:16:33;93714.25;;;18.65;43.40
5879;BME280;2965;42.640;23.370;2023-03-08T13:19:05;93731.41;;;18.58;43.62
5879;BME280;2965;42.640;23.370;2023-03-08T13:21:37;93730.72;;;19.00;43.03
5879;BME280;2965;42.640;23.370;2023-03-08T13:24:13;93724.84;;;18.93;43.55
5879;BME280;2965;42.640;23.370;2023-03-08T13:29:38;93713.13;;;19.73;41.02
5879;BME280;2965;42.640;23.370;2023-03-08T13:32:14;93721.28;;;20.19;39.93
5879;BME280;2965;42.640;23.370;2023-03-08T13:34:40;93727.13;;;20.26;39.37
5879;BME280;2965;42.640;23.370;2023-03-08T13:37:22;93718.13;;;20.42;39.61
5879;BME280;2965;42.640;23.370;2023-03-08T13:39:55;93720.78;;;20.32;39.66
5879;BME280;2965;42.640;23.370;2023-03-08T13:42:23;93710.25;;;20.73;40.05
5879;BME280;2965;42.640;23.370;2023-03-08T13:44:53;93711.22;;;20.36;40.43
5879;BME280;2965;42.640;23.370;2023-03-08T13:47:34;93716.22;;;20.23;39.56
5879;BME280;2965;42.640;23.370;2023-03-08T13:50:01;93717.66;;;20.61;39.43
5879;BME280;2965;42.640;23.370;2023-03-08T13:52:31;93723.53;;;21.04;39.29
5879;BME280;2965;42.640;23.370;2023-03-08T13:55:03;93720.56;;;21.46;39.46
5879;BME280;2965;42.640;23.370;2023-03-08T13:57:32;93717.91;;;21.46;38.23
5879;BME280;2965;42.640;23.370;2023-03-08T14:00:18;93708.84;;;21.52;38.84
5879;BME280;2965;42.640;23.370;2023-03-08T14:02:45;93710.22;;;20.53;37.33
5879;BME280;2965;42.640;23.370;2023-03-08T14:05:41;93709.75;;;19.35;39.19
5879;BME280;2965;42.640;23.370;2023-03-08T14:08:18;93705.63;;;18.75;40.21
5879;BME280;2965;42.640;23.370;2023-03-08T14:10:49;93704.13;;;18.89;40.84
5879;BME280;2965;42.640;23.370;2023-03-08T14:13:29;93709.97;;;18.86;40.99
5879;BME280;2965;42.640;23.370;2023-03-08T14:15:58;93711.06;;;19.38;40.51
5879;BME280;2965;42.640;23.370;2023-03-08T14:18:31;93704.53;;;19.51;40.62
5879;BME280;2965;42.640;23.370;2023-03-08T14:23:44;93711.16;;;19.48;39.98
5879;BME280;2965;42.640;23.370;2023-03-08T14:31:35;93710.09;;;20.12;39.23
5879;BME280;2965;42.640;23.370;2023-03-08T14:34:03;93720.44;;;19.56;39.81
5879;BME280;2965;42.640;23.370;2023-03-08T14:36:47;93714.97;;;19.25;39.13
5879;BME280;2965;42.640;23.370;2023-03-08T14:39:18;93705.81;;;19.01;37.81
5879;BME280;2965;42.640;23.370;2023-03-08T14:41:44;93701.03;;;18.98;38.40
5879;BME280;2965;42.640;23.370;2023-03-08T14:44:18;93716.97;;;18.44;39.27
5879;BME280;2965;42.640;23.370;2023-03-08T14:46:45;93721.09;;;18.29;39.43
5879;BME280;2965;42.640;23.370;2023-03-08T14:49:20;93720.19;;;17.75;40.02
5879;BME280;2965;42.640;23.370;2023-03-08T14:51:46;93722.06;;;17.35;41.68
5879;BME280;2965;42.640;23.370;2023-03-08T14:54:38;93721.47;;;17.11;42.43
5879;BME280;2965;42.640;23.370;2023-03-08T14:57:24;93729.16;;;16.96;43.16
5879;BME280;2965;42.640;23.370;2023-03-08T14:59:50;93738.34;;;16.77;43.87
5879;BME280;2965;42.640;23.370;2023-03-08T15:02:17;93731.50;;;16.64;43.42
5879;BME280;2965;42.640;23.370;2023-03-08T15:04:43;93735.59;;;16.55;44.06
5879;BME280;2965;42.640;23.370;2023-03-08T15:07:19;93733.53;;;16.28;44.80
5879;BME280;2965;42.640;23.370;2023-03-08T15:09:46;93714.81;;;16.13;45.33
5879;BME280;2965;42.640;23.370;2023-03-08T15:12:13;93717.66;;;15.95;45.69
5879;BME280;2965;42.640;23.370;2023-03-08T15:14:38;93720.66;;;15.86;46.67
5879;BME280;2965;42.640;23.370;2023-03-08T15:17:04;93722.94;;;15.95;46.66
5879;BME280;2965;42.640;23.370;2023-03-08T15:19:29;93722.28;;;15.76;46.75
5879;BME280;2965;42.640;23.370;2023-03-08T15:21:54;93717.72;;;15.71;47.36
5879;BME280;2965;42.640;23.370;2023-03-08T15:24:21;93726.31;;;15.67;47.57
5879;BME280;2965;42.640;23.370;2023-03-08T15:26:46;93719.56;;;15.59;47.94
5879;BME280;2965;42.640;23.370;2023-03-08T15:29:28;93737.19;;;15.70;47.93
5879;BME280;2965;42.640;23.370;2023-03-08T15:31:54;93737.31;;;15.75;48.05
5879;BME280;2965;42.640;23.370;2023-03-08T15:34:20;93744.94;;;15.88;47.87
5879;BME280;2965;42.640;23.370;2023-03-08T15:36:47;93740.63;;;15.82;47.52
5879;BME280;2965;42.640;23.370;2023-03-08T15:39:13;93735.06;;;15.96;47.12
5879;BME280;2965;42.640;23.370;2023-03-08T15:41:39;93727.91;;;16.08;47.21
5879;BME280;2965;42.640;23.370;2023-03-08T15:44:04;93732.97;;;15.98;47.37
5879;BME280;2965;42.640;23.370;2023-03-08T15:46:31;93736.53;;;15.63;47.56
5879;BME280;2965;42.640;23.370;2023-03-08T15:48:56;93730.56;;;15.56;47.66
5879;BME280;2965;42.640;23.370;2023-03-08T15:51:26;93728.44;;;15.41;48.15
5879;BME280;2965;42.640;23.370;2023-03-08T15:53:53;93731.16;;;15.34;48.66
5879;BME280;2965;42.640;23.370;2023-03-08T15:56:18;93734.59;;;15.35;48.83
5879;BME280;2965;42.640;23.370;2023-03-08T15:58:43;93731.75;;;15.25;49.31
5879;BME280;2965;42.640;23.370;2023-03-08T16:01:09;93729.47;;;15.28;49.12
5879;BME280;2965;42.640;23.370;2023-03-08T16:03:36;93724.88;;;15.12;49.97
5879;BME280;2965;42.640;23.370;2023-03-08T16:06:08;93734.94;;;14.92;50.85
5879;BME280;2965;42.640;23.370;2023-03-08T16:08:33;93726.94;;;14.86;51.08
5879;BME280;2965;42.640;23.370;2023-03-08T16:10:59;93726.84;;;14.93;50.80
5879;BME280;2965;42.640;23.370;2023-03-08T16:13:28;93724.09;;;14.88;51.46
5879;BME280;2965;42.640;23.370;2023-03-08T16:15:56;93740.13;;;14.75;51.18
5879;BME280;2965;42.640;23.370;2023-03-08T16:18:22;93731.75;;;14.66;52.36
5879;BME280;2965;42.640;23.370;2023-03-08T17:03:09;93762.88;;;13.79;52.81
5879;BME280;2965;42.640;23.370;2023-03-08T17:05:38;93771.84;;;13.71;53.10
5879;BME280;2965;42.640;23.370;2023-03-08T17:08:07;93771.84;;;13.71;52.61
5879;BME280;2965;42.640;23.370;2023-03-08T17:10:40;93767.75;;;13.75;53.53
5879;BME280;2965;42.640;23.370;2023-03-08T17:13:06;93772.81;;;13.77;53.12
5879;BME280;2965;42.640;23.370;2023-03-08T17:15:38;93768.56;;;13.76;53.81
5879;BME280;2965;42.640;23.370;2023-03-08T17:18:03;93769.09;;;13.66;53.57
5879;BME280;2965;42.640;23.370;2023-03-08T17:20:28;93770.53;;;13.80;53.67
5879;BME280;2965;42.640;23.370;2023-03-08T17:22:54;93767.72;;;13.63;54.33
5879;BME280;2965;42.640;23.370;2023-03-08T17:25:19;93777.19;;;13.65;54.48
5879;BME280;2965;42.640;23.370;2023-03-08T17:27:45;93775.94;;;13.67;55.11
5879;BME280;2965;42.640;23.370;2023-03-08T17:30:10;93793.00;;;13.58;55.14
5879;BME280;2965;42.640;23.370;2023-03-08T17:32:38;93788.56;;;13.58;54.66
5879;BME280;2965;42.640;23.370;2023-03-08T17:35:04;93792.56;;;13.24;55.15
5879;BME280;2965;42.640;23.370;2023-03-08T17:37:29;93797.38;;;13.27;54.40
5879;BME280;2965;42.640;23.370;2023-03-08T17:39:55;93818.47;;;12.64;57.21
5879;BME280;2965;42.640;23.370;2023-03-08T17:42:20;93823.06;;;12.69;56.86
5879;BME280;2965;42.640;23.370;2023-03-08T17:44:45;93830.28;;;12.73;56.99
5879;BME280;2965;42.640;23.370;2023-03-08T17:47:11;93832.91;;;12.73;57.81
5879;BME280;2965;42.640;23.370;2023-03-08T17:49:38;93840.66;;;12.61;58.92
5879;BME280;2965;42.640;23.370;2023-03-08T17:52:03;93843.91;;;12.57;59.43
5879;BME280;2965;42.640;23.370;2023-03-08T17:54:29;93844.00;;;12.44;60.60
5879;BME280;2965;42.640;23.370;2023-03-08T17:56:54;93842.53;;;12.16;59.26
5879;BME280;2965;42.640;23.370;2023-03-08T17:59:19;93852.59;;;12.19;59.62
5879;BME280;2965;42.640;23.370;2023-03-08T18:01:45;93863.94;;;12.13;60.36
5879;BME280;2965;42.640;23.370;2023-03-08T18:04:10;93849.59;;;12.16;61.24
5879;BME280;2965;42.640;23.370;2023-03-08T18:06:40;93852.81;;;12.18;60.17
5879;BME280;2965;42.640;23.370;2023-03-08T18:09:12;93859.44;;;12.27;58.06
5879;BME280;2965;42.640;23.370;2023-03-08T18:11:38;93867.03;;;12.42;56.05
5879;BME280;2965;42.640;23.370;2023-03-08T18:14:08;93863.38;;;12.43;56.42
5879;BME280;2965;42.640;23.370;2023-03-08T18:16:34;93860.56;;;12.44;55.85
5879;BME280;2965;42.640;23.370;2023-03-08T18:19:01;93871.06;;;12.37;55.84
5879;BME280;2965;42.640;23.370;2023-03-08T18:21:29;93863.88;;;12.26;55.31
5879;BME280;2965;42.640;23.370;2023-03-08T18:23:55;93873.59;;;12.12;56.31
5879;BME280;2965;42.640;23.370;2023-03-08T18:26:21;93868.22;;;12.01;55.84
5879;BME280;2965;42.640;23.370;2023-03-08T18:28:47;93873.41;;;12.14;54.54
5879;BME280;2965;42.640;23.370;2023-03-08T18:31:18;93872.78;;;12.12;55.18
5879;BME280;2965;42.640;23.370;2023-03-08T18:33:47;93868.44;;;11.93;55.47
5879;BME280;2965;42.640;23.370;2023-03-08T18:36:13;93868.41;;;11.99;55.38
5879;BME280;2965;42.640;23.370;2023-03-08T18:38:38;93868.03;;;11.96;56.33
5879;BME280;2965;42.640;23.370;2023-03-08T18:41:18;93865.41;;;11.89;55.37
5879;BME280;2965;42.640;23.370;2023-03-08T18:43:46;93870.06;;;11.87;55.84
5879;BME280;2965;42.640;23.370;2023-03-08T18:46:12;93864.41;;;11.97;54.88
5879;BME280;2965;42.640;23.370;2023-03-08T18:48:38;93867.78;;;12.04;54.99
5879;BME280;2965;42.640;23.370;2023-03-08T18:51:04;93872.78;;;12.12;54.79
5879;BME280;2965;42.640;23.370;2023-03-08T18:53:29;93869.41;;;12.05;54.63
5879;BME280;2965;42.640;23.370;2023-03-08T18:55:56;93871.25;;;11.98;55.17
5879;BME280;2965;42.640;23.370;2023-03-08T18:58:22;93870.22;;;11.99;54.83
5879;BME280;2965;42.640;23.370;2023-03-08T19:54:08;93893.75;;;12.12;52.57
5879;BME280;2965;42.640;23.370;2023-03-08T19:56:34;93900.31;;;11.83;56.32
5879;BME280;2965;42.640;23.370;2023-03-08T19:58:59;93910.41;;;11.66;56.20
5879;BME280;2965;42.640;23.370;2023-03-08T20:01:25;93922.88;;;11.64;54.73
5879;BME280;2965;42.640;23.370;2023-03-08T20:03:52;93898.91;;;11.74;54.55
5879;BME280;2965;42.640;23.370;2023-03-08T20:06:32;93912.41;;;11.64;56.26
5879;BME280;2965;42.640;23.370;2023-03-08T20:08:59;93912.81;;;11.54;56.37
5879;BME280;2965;42.640;23.370;2023-03-08T20:11:25;93919.69;;;11.55;56.61
5879;BME280;2965;42.640;23.370;2023-03-08T20:13:51;93919.69;;;11.22;58.24
5879;BME280;2965;42.640;23.370;2023-03-08T20:16:17;93922.50;;;11.14;58.38
5879;BME280;2965;42.640;23.370;2023-03-08T20:18:43;93915.66;;;11.40;57.93
5879;BME280;2965;42.640;23.370;2023-03-08T20:21:08;93920.50;;;11.49;57.93
5879;BME280;2965;42.640;23.370;2023-03-08T20:23:34;93918.47;;;11.45;58.02
5879;BME280;2965;42.640;23.370;2023-03-08T20:26:00;93930.19;;;11.29;59.47
5879;BME280;2965;42.640;23.370;2023-03-08T20:28:26;93918.28;;;11.00;59.93
5879;BME280;2965;42.640;23.370;2023-03-08T20:30:51;93917.28;;;11.14;60.12
5879;BME280;2965;42.640;23.370;2023-03-08T20:33:17;93918.69;;;11.17;59.29
5879;BME280;2965;42.640;23.370;2023-03-08T20:35:42;93931.78;;;11.23;60.45
5879;BME280;2965;42.640;23.370;2023-03-08T20:38:11;93924.72;;;11.04;60.76
5879;BME280;2965;42.640;23.370;2023-03-08T20:40:36;93920.50;;;11.16;60.56
5879;BME280;2965;42.640;23.370;2023-03-08T20:43:01;93921.28;;;11.10;61.40
5879;BME280;2965;42.640;23.370;2023-03-08T20:45:27;93925.31;;;11.06;61.75
5879;BME280;2965;42.640;23.370;2023-03-08T20:47:53;93927.53;;;10.89;63.76
5879;BME280;2965;42.640;23.370;2023-03-08T20:52:57;93923.31;;;10.95;62.93
5879;BME280;2965;42.640;23.370;2023-03-08T20:55:23;93922.47;;;10.88;62.74
5879;BME280;2965;42.640;23.370;2023-03-08T20:57:50;93920.06;;;10.93;63.34
5879;BME280;2965;42.640;23.370;2023-03-08T21:00:16;93912.19;;;10.73;64.20
5879;BME280;2965;42.640;23.370;2023-03-08T21:02:41;93914.78;;;10.66;64.92
5879;BME280;2965;42.640;23.370;2023-03-08T21:05:07;93914.97;;;10.58;65.56
5879;BME280;2965;42.640;23.370;2023-03-08T21:07:32;93905.53;;;10.64;65.54
5879;BME280;2965;42.640;23.370;2023-03-08T21:09:58;93897.84;;;10.49;65.53
5879;BME280;2965;42.640;23.370;2023-03-08T21:12:23;93898.22;;;10.39;66.81
5879;BME280;2965;42.640;23.370;2023-03-08T21:14:52;93912.09;;;10.40;66.79
5879;BME280;2965;42.640;23.370;2023-03-08T21:17:18;93900.66;;;10.41;67.48
5879;BME280;2965;42.640;23.370;2023-03-08T21:19:49;93902.84;;;10.37;67.12
5879;BME280;2965;42.640;23.370;2023-03-08T21:22:14;93906.66;;;10.34;68.01